Penfld, Georgia
Current Conditions -  °F | °C
As of 12:35 AM on Sunday 23 Nov 2014 (Local Time) from K3J7 Reporting Station
Overcast Overcast  
Wind Chill: 54°   Ceiling: 4300
Heat Index: 54°   Visibility: 10mi
Dew Point: 39°   Wind: 0mph
Humidity: 58%   Direction: NA
Pressure: 30.19"   Gusts: NA
Location:  33.6722°N, 83.1249°W
Report Text: K3J7 230535Z AUTO 00000KT 10SM OVC043 12/04 A3019 RMK AO2
Loading
Personal Weather Stations






























Interactive Weather Map New forecast layout! Learn more

10-Day Weather Forecast

Advertisements
Track Severe Weather on mobile